sensor_id;sensor_type;location;lat;lon;timestamp;temperature;humidity
49052;DHT22;34866;48.670;18.260;2022-07-29T00:03:21;435.20;2355.20
49052;DHT22;34866;48.670;18.260;2022-07-29T00:06:09;410.40;2355.20
49052;DHT22;34866;48.670;18.260;2022-07-29T00:09:23;410.40;2355.20
49052;DHT22;34866;48.670;18.260;2022-07-29T00:12:41;410.40;2355.20
49052;DHT22;34866;48.670;18.260;2022-07-29T00:19:19;410.30;2355.20
49052;DHT22;34866;48.670;18.260;2022-07-29T00:22:51;410.20;2355.20
49052;DHT22;34866;48.670;18.260;2022-07-29T00:26:08;410.10;2355.20
49052;DHT22;34866;48.670;18.260;2022-07-29T00:29:36;410.20;2355.20
49052;DHT22;34866;48.670;18.260;2022-07-29T00:36:46;410.00;2355.20
49052;DHT22;34866;48.670;18.260;2022-07-29T00:40:13;409.90;2355.20
49052;DHT22;34866;48.670;18.260;2022-07-29T00:43:59;409.80;2355.20
49052;DHT22;34866;48.670;18.260;2022-07-29T00:51:22;409.90;2355.20
49052;DHT22;34866;48.670;18.260;2022-07-29T00:54:46;409.70;2355.20
49052;DHT22;34866;48.670;18.260;2022-07-29T01:01:34;409.70;2355.20
49052;DHT22;34866;48.670;18.260;2022-07-29T01:04:31;409.60;2355.20
49052;DHT22;34866;48.670;18.260;2022-07-29T01:08:20;384.90;2329.60
49052;DHT22;34866;48.670;18.260;2022-07-29T01:11:26;409.70;2355.20
49052;DHT22;34866;48.670;18.260;2022-07-29T01:30:45;384.80;2329.60
49052;DHT22;34866;48.670;18.260;2022-07-29T01:33:58;384.50;2329.60
49052;DHT22;34866;48.670;18.260;2022-07-29T01:43:54;384.70;2329.60
49052;DHT22;34866;48.670;18.260;2022-07-29T01:47:19;384.70;2329.60
49052;DHT22;34866;48.670;18.260;2022-07-29T01:50:11;384.90;2329.60
49052;DHT22;34866;48.670;18.260;2022-07-29T01:53:21;384.90;2329.60
49052;DHT22;34866;48.670;18.260;2022-07-29T02:03:21;384.90;2329.60
49052;DHT22;34866;48.670;18.260;2022-07-29T02:06:37;409.60;2355.20
49052;DHT22;34866;48.670;18.260;2022-07-29T02:13:46;384.80;2329.60
49052;DHT22;34866;48.670;18.260;2022-07-29T02:17:05;384.80;2329.60
49052;DHT22;34866;48.670;18.260;2022-07-29T02:19:57;384.80;2329.60
49052;DHT22;34866;48.670;18.260;2022-07-29T02:26:27;384.80;2329.60
49052;DHT22;34866;48.670;18.260;2022-07-29T02:29:41;409.60;2355.20
49052;DHT22;34866;48.670;18.260;2022-07-29T02:32:53;384.80;2329.60
49052;DHT22;34866;48.670;18.260;2022-07-29T02:46:35;384.80;2329.60
49052;DHT22;34866;48.670;18.260;2022-07-29T02:50:00;384.70;2329.60
49052;DHT22;34866;48.670;18.260;2022-07-29T02:56:57;384.50;2329.60
49052;DHT22;34866;48.670;18.260;2022-07-29T03:00:37;384.50;2329.60
49052;DHT22;34866;48.670;18.260;2022-07-29T03:07:04;384.50;2329.60
49052;DHT22;34866;48.670;18.260;2022-07-29T03:11:20;384.40;2329.60
49052;DHT22;34866;48.670;18.260;2022-07-29T03:15:06;384.40;2329.60
49052;DHT22;34866;48.670;18.260;2022-07-29T03:22:22;384.60;2329.60
49052;DHT22;34866;48.670;18.260;2022-07-29T03:28:13;384.30;2329.60
49052;DHT22;34866;48.670;18.260;2022-07-29T03:35:23;384.50;2329.60
49052;DHT22;34866;48.670;18.260;2022-07-29T03:38:32;384.30;2329.60
49052;DHT22;34866;48.670;18.260;2022-07-29T03:41:23;384.20;2329.60
49052;DHT22;34866;48.670;18.260;2022-07-29T03:45:11;384.20;2048.00
49052;DHT22;34866;48.670;18.260;2022-07-29T04:01:55;384.30;2329.60
49052;DHT22;34866;48.670;18.260;2022-07-29T04:05:16;384.30;2022.40
49052;DHT22;34866;48.670;18.260;2022-07-29T04:08:32;384.40;2048.00
49052;DHT22;34866;48.670;18.260;2022-07-29T04:11:43;384.40;2329.60
49052;DHT22;34866;48.670;18.260;2022-07-29T04:14:21;384.70;2329.60
49052;DHT22;34866;48.670;18.260;2022-07-29T04:16:58;384.90;2329.60
49052;DHT22;34866;48.670;18.260;2022-07-29T04:23:06;409.80;2355.20
49052;DHT22;34866;48.670;18.260;2022-07-29T04:26:18;409.90;2355.20
49052;DHT22;34866;48.670;18.260;2022-07-29T04:29:32;410.00;2355.20
49052;DHT22;34866;48.670;18.260;2022-07-29T04:33:04;410.30;2355.20
49052;DHT22;34866;48.670;18.260;2022-07-29T04:35:40;410.40;2355.20
49052;DHT22;34866;48.670;18.260;2022-07-29T04:41:49;435.20;2355.20
49052;DHT22;34866;48.670;18.260;2022-07-29T04:44:46;435.40;2355.20
49052;DHT22;34866;48.670;18.260;2022-07-29T04:48:26;435.30;2355.20
49052;DHT22;34866;48.670;18.260;2022-07-29T04:51:44;435.60;2355.20
49052;DHT22;34866;48.670;18.260;2022-07-29T04:55:10;435.70;2355.20
49052;DHT22;34866;48.670;18.260;2022-07-29T05:01:40;435.90;2355.20
49052;DHT22;34866;48.670;18.260;2022-07-29T05:13:07;461.00;2380.80
49052;DHT22;34866;48.670;18.260;2022-07-29T05:18:55;461.50;2380.80
49052;DHT22;34866;48.670;18.260;2022-07-29T05:22:14;461.60;2380.80
49052;DHT22;34866;48.670;18.260;2022-07-29T06:17:54;563.60;2432.00
49052;DHT22;34866;48.670;18.260;2022-07-29T06:51:00;589.30;2432.00
49052;DHT22;34866;48.670;18.260;2022-07-29T07:08:09;589.40;2432.00
49052;DHT22;34866;48.670;18.260;2022-07-29T07:14:23;615.00;2432.00
49052;DHT22;34866;48.670;18.260;2022-07-29T07:43:42;665.80;1536.00
49052;DHT22;34866;48.670;18.260;2022-07-29T07:53:30;666.30;1587.20
49052;DHT22;34866;48.670;18.260;2022-07-29T08:18:41;691.50;1305.60
49052;DHT22;34866;48.670;18.260;2022-07-29T08:24:06;691.60;1331.20
49052;DHT22;34866;48.670;18.260;2022-07-29T08:27:37;691.90;1280.00
49052;DHT22;34866;48.670;18.260;2022-07-29T08:36:46;717.30;1203.20
49052;DHT22;34866;48.670;18.260;2022-07-29T08:40:18;717.30;1228.80
49052;DHT22;34866;48.670;18.260;2022-07-29T08:48:44;717.50;1152.00
49052;DHT22;34866;48.670;18.260;2022-07-29T08:51:56;717.60;1203.20
49052;DHT22;34866;48.670;18.260;2022-07-29T08:54:47;717.70;1100.80
49052;DHT22;34866;48.670;18.260;2022-07-29T08:57:54;742.40;1126.40
49052;DHT22;34866;48.670;18.260;2022-07-29T09:10:27;742.70;1075.20
49052;DHT22;34866;48.670;18.260;2022-07-29T09:29:16;742.80;1049.60
49052;DHT22;34866;48.670;18.260;2022-07-29T09:32:15;743.10;1100.80
49052;DHT22;34866;48.670;18.260;2022-07-29T09:36:07;768.30;1049.60
49052;DHT22;34866;48.670;18.260;2022-07-29T09:50:03;768.00;947.20
49052;DHT22;34866;48.670;18.260;2022-07-29T10:05:34;768.20;896.00
49052;DHT22;34866;48.670;18.260;2022-07-29T10:08:32;768.70;921.60
49052;DHT22;34866;48.670;18.260;2022-07-29T10:11:40;793.90;921.60
49052;DHT22;34866;48.670;18.260;2022-07-29T10:14:09;794.00;870.40
49052;DHT22;34866;48.670;18.260;2022-07-29T10:19:38;793.80;844.80
49052;DHT22;34866;48.670;18.260;2022-07-29T10:25:35;794.00;819.20
49052;DHT22;34866;48.670;18.260;2022-07-29T10:47:29;793.90;768.00
49052;DHT22;34866;48.670;18.260;2022-07-29T10:59:28;794.00;742.40
49052;DHT22;34866;48.670;18.260;2022-07-29T11:09:35;819.40;665.60
49052;DHT22;34866;48.670;18.260;2022-07-29T11:31:43;794.00;665.60
49052;DHT22;34866;48.670;18.260;2022-07-29T11:34:31;794.00;640.00
49052;DHT22;34866;48.670;18.260;2022-07-29T11:37:26;794.00;640.00
49052;DHT22;34866;48.670;18.260;2022-07-29T11:40:23;794.00;716.80
49052;DHT22;34866;48.670;18.260;2022-07-29T11:49:07;793.80;640.00
49052;DHT22;34866;48.670;18.260;2022-07-29T11:51:39;794.10;614.40
49052;DHT22;34866;48.670;18.260;2022-07-29T11:54:15;794.50;665.60
49052;DHT22;34866;48.670;18.260;2022-07-29T11:56:52;794.30;614.40
49052;DHT22;34866;48.670;18.260;2022-07-29T11:59:19;820.10;614.40
49052;DHT22;34866;48.670;18.260;2022-07-29T12:02:05;794.50;614.40
49052;DHT22;34866;48.670;18.260;2022-07-29T12:05:04;819.60;588.80
49052;DHT22;34866;48.670;18.260;2022-07-29T12:11:49;819.90;614.40
49052;DHT22;34866;48.670;18.260;2022-07-29T12:14:39;820.10;588.80
49052;DHT22;34866;48.670;18.260;2022-07-29T12:17:34;820.00;588.80
49052;DHT22;34866;48.670;18.260;2022-07-29T12:20:38;844.90;563.20
49052;DHT22;34866;48.670;18.260;2022-07-29T12:25:51;819.90;588.80
49052;DHT22;34866;48.670;18.260;2022-07-29T12:28:23;845.50;614.40
49052;DHT22;34866;48.670;18.260;2022-07-29T12:30:50;845.70;563.20
49052;DHT22;34866;48.670;18.260;2022-07-29T12:33:29;870.40;563.20
49052;DHT22;34866;48.670;18.260;2022-07-29T12:36:14;845.50;588.80
49052;DHT22;34866;48.670;18.260;2022-07-29T12:38:46;844.80;563.20
49052;DHT22;34866;48.670;18.260;2022-07-29T12:41:13;845.20;588.80
49052;DHT22;34866;48.670;18.260;2022-07-29T12:44:19;845.40;537.60
49052;DHT22;34866;48.670;18.260;2022-07-29T12:47:12;845.20;537.60
49052;DHT22;34866;48.670;18.260;2022-07-29T12:49:44;845.20;563.20
49052;DHT22;34866;48.670;18.260;2022-07-29T12:52:34;844.80;588.80
49052;DHT22;34866;48.670;18.260;2022-07-29T12:55:48;819.70;563.20
49052;DHT22;34866;48.670;18.260;2022-07-29T12:58:51;819.60;537.60
49052;DHT22;34866;48.670;18.260;2022-07-29T13:01:36;819.80;563.20
49052;DHT22;34866;48.670;18.260;2022-07-29T13:07:32;819.20;588.80
49052;DHT22;34866;48.670;18.260;2022-07-29T13:10:25;819.70;563.20
49052;DHT22;34866;48.670;18.260;2022-07-29T13:25:24;794.50;563.20
49052;DHT22;34866;48.670;18.260;2022-07-29T13:27:58;819.20;563.20
49052;DHT22;34866;48.670;18.260;2022-07-29T13:31:00;819.20;563.20
49052;DHT22;34866;48.670;18.260;2022-07-29T13:33:52;794.50;563.20
49052;DHT22;34866;48.670;18.260;2022-07-29T13:36:18;819.60;537.60
49052;DHT22;34866;48.670;18.260;2022-07-29T13:39:22;819.90;563.20
49052;DHT22;34866;48.670;18.260;2022-07-29T13:41:48;819.90;537.60
49052;DHT22;34866;48.670;18.260;2022-07-29T13:44:20;845.20;614.40
49052;DHT22;34866;48.670;18.260;2022-07-29T13:46:49;845.20;512.00
49052;DHT22;34866;48.670;18.260;2022-07-29T13:49:15;819.90;563.20
49052;DHT22;34866;48.670;18.260;2022-07-29T13:51:46;819.60;537.60
49052;DHT22;34866;48.670;18.260;2022-07-29T13:54:12;794.50;563.20
49052;DHT22;34866;48.670;18.260;2022-07-29T14:14:27;768.90;537.60
49052;DHT22;34866;48.670;18.260;2022-07-29T14:17:03;768.80;588.80
49052;DHT22;34866;48.670;18.260;2022-07-29T14:26:32;793.80;896.00
49052;DHT22;34866;48.670;18.260;2022-07-29T14:28:58;768.90;793.60
49052;DHT22;34866;48.670;18.260;2022-07-29T14:31:44;793.70;768.00
49052;DHT22;34866;48.670;18.260;2022-07-29T14:34:12;793.80;691.20
49052;DHT22;34866;48.670;18.260;2022-07-29T14:39:50;742.80;819.20
49052;DHT22;34866;48.670;18.260;2022-07-29T14:42:20;742.70;947.20
49052;DHT22;34866;48.670;18.260;2022-07-29T14:52:02;717.00;819.20
49052;DHT22;34866;48.670;18.260;2022-07-29T15:11:15;717.30;896.00
49052;DHT22;34866;48.670;18.260;2022-07-29T15:14:10;716.90;1024.00
49052;DHT22;34866;48.670;18.260;2022-07-29T15:16:57;692.10;998.40
49052;DHT22;34866;48.670;18.260;2022-07-29T15:20:04;691.70;1126.40
49052;DHT22;34866;48.670;18.260;2022-07-29T15:22:39;692.10;1126.40
49052;DHT22;34866;48.670;18.260;2022-07-29T15:25:08;691.90;1126.40
49052;DHT22;34866;48.670;18.260;2022-07-29T15:27:37;692.10;1203.20
49052;DHT22;34866;48.670;18.260;2022-07-29T15:30:25;691.60;1280.00
49052;DHT22;34866;48.670;18.260;2022-07-29T15:32:52;691.80;1356.80
49052;DHT22;34866;48.670;18.260;2022-07-29T15:35:33;691.90;1408.00
49052;DHT22;34866;48.670;18.260;2022-07-29T15:38:04;691.70;1331.20
49052;DHT22;34866;48.670;18.260;2022-07-29T15:40:38;691.80;1356.80
49052;DHT22;34866;48.670;18.260;2022-07-29T15:43:33;691.50;1459.20
49052;DHT22;34866;48.670;18.260;2022-07-29T15:46:17;691.50;1433.60
49052;DHT22;34866;48.670;18.260;2022-07-29T15:49:03;691.60;1356.80
49052;DHT22;34866;48.670;18.260;2022-07-29T15:51:45;691.60;1305.60
49052;DHT22;34866;48.670;18.260;2022-07-29T15:54:12;691.20;1459.20
49052;DHT22;34866;48.670;18.260;2022-07-29T15:56:40;691.20;1408.00
49052;DHT22;34866;48.670;18.260;2022-07-29T15:59:06;666.50;1561.60
49052;DHT22;34866;48.670;18.260;2022-07-29T16:01:36;666.20;1766.40
49052;DHT22;34866;48.670;18.260;2022-07-29T16:04:07;666.40;1612.80
49052;DHT22;34866;48.670;18.260;2022-07-29T16:06:33;691.20;1638.40
49052;DHT22;34866;48.670;18.260;2022-07-29T16:08:59;691.20;1587.20
49052;DHT22;34866;48.670;18.260;2022-07-29T16:11:25;666.50;1510.40
49052;DHT22;34866;48.670;18.260;2022-07-29T16:13:52;691.20;1587.20
49052;DHT22;34866;48.670;18.260;2022-07-29T16:16:17;666.50;1484.80
49052;DHT22;34866;48.670;18.260;2022-07-29T16:18:45;691.20;1536.00
49052;DHT22;34866;48.670;18.260;2022-07-29T16:21:23;666.40;1459.20
49052;DHT22;34866;48.670;18.260;2022-07-29T16:24:24;666.40;1433.60
49052;DHT22;34866;48.670;18.260;2022-07-29T16:27:18;666.30;1510.40
49052;DHT22;34866;48.670;18.260;2022-07-29T16:30:00;665.70;1817.60
49052;DHT22;34866;48.670;18.260;2022-07-29T16:32:27;640.90;2099.20
49052;DHT22;34866;48.670;18.260;2022-07-29T16:35:13;640.80;2329.60
49052;DHT22;34866;48.670;18.260;2022-07-29T16:37:40;640.40;2432.00
49052;DHT22;34866;48.670;18.260;2022-07-29T16:40:07;640.40;2432.00
49052;DHT22;34866;48.670;18.260;2022-07-29T16:42:38;640.40;2432.00
49052;DHT22;34866;48.670;18.260;2022-07-29T16:45:07;640.30;2432.00
49052;DHT22;34866;48.670;18.260;2022-07-29T16:47:33;640.20;2432.00
49052;DHT22;34866;48.670;18.260;2022-07-29T16:50:19;640.20;2432.00
49052;DHT22;34866;48.670;18.260;2022-07-29T16:52:47;615.30;2432.00
49052;DHT22;34866;48.670;18.260;2022-07-29T16:55:16;615.20;2432.00
49052;DHT22;34866;48.670;18.260;2022-07-29T16:57:44;615.00;2432.00
49052;DHT22;34866;48.670;18.260;2022-07-29T17:00:15;615.10;2432.00
49052;DHT22;34866;48.670;18.260;2022-07-29T17:02:44;614.80;2432.00
49052;DHT22;34866;48.670;18.260;2022-07-29T17:05:11;614.60;2432.00
49052;DHT22;34866;48.670;18.260;2022-07-29T17:07:39;614.60;2432.00
49052;DHT22;34866;48.670;18.260;2022-07-29T17:10:05;589.60;2432.00
49052;DHT22;34866;48.670;18.260;2022-07-29T17:12:59;589.50;2432.00
49052;DHT22;34866;48.670;18.260;2022-07-29T17:15:31;614.50;2432.00
49052;DHT22;34866;48.670;18.260;2022-07-29T17:17:57;614.40;2432.00
49052;DHT22;34866;48.670;18.260;2022-07-29T17:20:25;589.50;2432.00
49052;DHT22;34866;48.670;18.260;2022-07-29T17:22:51;614.40;2432.00
49052;DHT22;34866;48.670;18.260;2022-07-29T17:25:20;589.70;2432.00
49052;DHT22;34866;48.670;18.260;2022-07-29T17:27:46;614.40;2432.00
49052;DHT22;34866;48.670;18.260;2022-07-29T17:30:12;614.60;2432.00
49052;DHT22;34866;48.670;18.260;2022-07-29T17:32:53;614.60;2432.00
49052;DHT22;34866;48.670;18.260;2022-07-29T17:35:39;614.40;2432.00
49052;DHT22;34866;48.670;18.260;2022-07-29T17:38:23;614.50;2432.00
49052;DHT22;34866;48.670;18.260;2022-07-29T17:40:55;589.70;2432.00
49052;DHT22;34866;48.670;18.260;2022-07-29T17:43:44;614.60;2432.00
49052;DHT22;34866;48.670;18.260;2022-07-29T17:47:01;589.40;2432.00
49052;DHT22;34866;48.670;18.260;2022-07-29T17:50:19;486.80;2380.80
49052;DHT22;34866;48.670;18.260;2022-07-29T17:52:48;589.00;2432.00
49052;DHT22;34866;48.670;18.260;2022-07-29T17:55:14;589.20;2432.00
49052;DHT22;34866;48.670;18.260;2022-07-29T17:58:02;589.30;2432.00
49052;DHT22;34866;48.670;18.260;2022-07-29T18:00:50;589.00;2432.00
49052;DHT22;34866;48.670;18.260;2022-07-29T18:03:58;588.90;2432.00
49052;DHT22;34866;48.670;18.260;2022-07-29T18:06:45;564.00;2432.00
49052;DHT22;34866;48.670;18.260;2022-07-29T18:09:11;563.90;2432.00
49052;DHT22;34866;48.670;18.260;2022-07-29T18:11:38;564.10;2432.00
49052;DHT22;34866;48.670;18.260;2022-07-29T18:14:27;564.10;2432.00
49052;DHT22;34866;48.670;18.260;2022-07-29T18:16:52;564.00;2432.00
49052;DHT22;34866;48.670;18.260;2022-07-29T18:22:41;588.80;2432.00
49052;DHT22;34866;48.670;18.260;2022-07-29T18:25:16;589.00;2432.00
49052;DHT22;34866;48.670;18.260;2022-07-29T18:27:42;589.00;2432.00
49052;DHT22;34866;48.670;18.260;2022-07-29T18:30:11;563.90;2432.00
49052;DHT22;34866;48.670;18.260;2022-07-29T18:32:39;564.00;2432.00
49052;DHT22;34866;48.670;18.260;2022-07-29T18:35:05;563.90;2432.00
49052;DHT22;34866;48.670;18.260;2022-07-29T18:37:56;563.40;2432.00
49052;DHT22;34866;48.670;18.260;2022-07-29T18:40:47;538.50;2406.40
49052;DHT22;34866;48.670;18.260;2022-07-29T18:43:14;563.30;2432.00
49052;DHT22;34866;48.670;18.260;2022-07-29T18:46:01;563.30;2432.00
49052;DHT22;34866;48.670;18.260;2022-07-29T18:48:27;538.40;2406.40
49052;DHT22;34866;48.670;18.260;2022-07-29T18:51:13;538.40;2406.40
49052;DHT22;34866;48.670;18.260;2022-07-29T18:54:00;538.20;2406.40
49052;DHT22;34866;48.670;18.260;2022-07-29T18:56:27;538.30;2406.40
49052;DHT22;34866;48.670;18.260;2022-07-29T18:58:54;538.20;2406.40
49052;DHT22;34866;48.670;18.260;2022-07-29T19:01:20;538.00;2406.40
49052;DHT22;34866;48.670;18.260;2022-07-29T19:03:47;538.10;2406.40
49052;DHT22;34866;48.670;18.260;2022-07-29T19:06:32;538.10;2406.40
49052;DHT22;34866;48.670;18.260;2022-07-29T19:08:58;537.80;2406.40
49052;DHT22;34866;48.670;18.260;2022-07-29T19:11:24;537.80;2406.40
49052;DHT22;34866;48.670;18.260;2022-07-29T19:13:56;537.70;2406.40
49052;DHT22;34866;48.670;18.260;2022-07-29T19:16:25;537.70;2406.40
49052;DHT22;34866;48.670;18.260;2022-07-29T19:19:11;537.60;2406.40
49052;DHT22;34866;48.670;18.260;2022-07-29T19:21:38;537.60;2406.40
49052;DHT22;34866;48.670;18.260;2022-07-29T19:24:06;512.80;2380.80
49052;DHT22;34866;48.670;18.260;2022-07-29T19:26:33;512.70;2380.80
49052;DHT22;34866;48.670;18.260;2022-07-29T19:29:02;512.80;2380.80
49052;DHT22;34866;48.670;18.260;2022-07-29T19:31:38;512.70;2380.80
49052;DHT22;34866;48.670;18.260;2022-07-29T19:34:11;512.50;2380.80
49052;DHT22;34866;48.670;18.260;2022-07-29T19:36:38;512.70;2380.80
49052;DHT22;34866;48.670;18.260;2022-07-29T19:39:04;512.10;2380.80
49052;DHT22;34866;48.670;18.260;2022-07-29T19:41:30;512.60;2380.80
49052;DHT22;34866;48.670;18.260;2022-07-29T19:43:57;512.70;2380.80
49052;DHT22;34866;48.670;18.260;2022-07-29T19:46:23;512.30;2380.80
49052;DHT22;34866;48.670;18.260;2022-07-29T19:48:49;512.50;2380.80
49052;DHT22;34866;48.670;18.260;2022-07-29T19:51:18;512.50;2380.80
49052;DHT22;34866;48.670;18.260;2022-07-29T19:53:44;460.80;2380.80
49052;DHT22;34866;48.670;18.260;2022-07-29T19:56:30;512.40;2380.80
49052;DHT22;34866;48.670;18.260;2022-07-29T19:58:56;512.20;2380.80
49052;DHT22;34866;48.670;18.260;2022-07-29T20:01:22;512.00;2380.80
49052;DHT22;34866;48.670;18.260;2022-07-29T20:03:51;487.20;2380.80
49052;DHT22;34866;48.670;18.260;2022-07-29T20:06:18;487.20;2380.80
49052;DHT22;34866;48.670;18.260;2022-07-29T20:08:44;512.00;2380.80
49052;DHT22;34866;48.670;18.260;2022-07-29T20:11:09;487.30;2380.80
49052;DHT22;34866;48.670;18.260;2022-07-29T20:13:35;487.30;2380.80
49052;DHT22;34866;48.670;18.260;2022-07-29T20:16:02;487.10;2380.80
49052;DHT22;34866;48.670;18.260;2022-07-29T20:18:30;487.20;2380.80
49052;DHT22;34866;48.670;18.260;2022-07-29T20:21:02;487.30;2380.80
49052;DHT22;34866;48.670;18.260;2022-07-29T20:23:28;487.20;2380.80
49052;DHT22;34866;48.670;18.260;2022-07-29T20:25:54;487.10;2380.80
49052;DHT22;34866;48.670;18.260;2022-07-29T20:28:20;487.10;2380.80
49052;DHT22;34866;48.670;18.260;2022-07-29T20:30:46;487.30;2380.80
49052;DHT22;34866;48.670;18.260;2022-07-29T20:33:11;487.20;2380.80
49052;DHT22;34866;48.670;18.260;2022-07-29T20:35:37;487.10;2380.80
49052;DHT22;34866;48.670;18.260;2022-07-29T20:38:05;487.20;2380.80
49052;DHT22;34866;48.670;18.260;2022-07-29T20:40:31;487.10;2380.80
49052;DHT22;34866;48.670;18.260;2022-07-29T20:42:57;487.10;2380.80
49052;DHT22;34866;48.670;18.260;2022-07-29T20:45:25;487.10;2380.80
49052;DHT22;34866;48.670;18.260;2022-07-29T20:47:51;487.20;2380.80
49052;DHT22;34866;48.670;18.260;2022-07-29T20:50:18;487.30;2380.80
49052;DHT22;34866;48.670;18.260;2022-07-29T20:52:45;487.10;2380.80
49052;DHT22;34866;48.670;18.260;2022-07-29T20:55:13;487.10;2380.80
49052;DHT22;34866;48.670;18.260;2022-07-29T20:57:39;487.10;2380.80
49052;DHT22;34866;48.670;18.260;2022-07-29T21:00:05;487.10;2380.80
49052;DHT22;34866;48.670;18.260;2022-07-29T21:02:31;487.20;2380.80
49052;DHT22;34866;48.670;18.260;2022-07-29T21:04:57;487.10;2380.80
49052;DHT22;34866;48.670;18.260;2022-07-29T21:07:23;487.10;2380.80
49052;DHT22;34866;48.670;18.260;2022-07-29T21:09:49;487.10;2380.80
49052;DHT22;34866;48.670;18.260;2022-07-29T21:12:15;487.20;2380.80
49052;DHT22;34866;48.670;18.260;2022-07-29T21:14:44;487.20;2380.80
49052;DHT22;34866;48.670;18.260;2022-07-29T21:17:14;487.00;2380.80
49052;DHT22;34866;48.670;18.260;2022-07-29T21:19:40;487.00;2380.80
49052;DHT22;34866;48.670;18.260;2022-07-29T21:22:06;487.10;2380.80
49052;DHT22;34866;48.670;18.260;2022-07-29T21:24:34;487.20;2380.80
49052;DHT22;34866;48.670;18.260;2022-07-29T21:27:00;487.10;2380.80
49052;DHT22;34866;48.670;18.260;2022-07-29T21:29:44;487.30;2380.80
49052;DHT22;34866;48.670;18.260;2022-07-29T21:32:10;487.20;2380.80
49052;DHT22;34866;48.670;18.260;2022-07-29T21:34:37;487.20;2380.80
49052;DHT22;34866;48.670;18.260;2022-07-29T21:37:08;487.30;2380.80
49052;DHT22;34866;48.670;18.260;2022-07-29T21:39:35;487.20;2380.80
49052;DHT22;34866;48.670;18.260;2022-07-29T21:42:00;512.00;2380.80
49052;DHT22;34866;48.670;18.260;2022-07-29T21:44:26;487.10;2380.80
49052;DHT22;34866;48.670;18.260;2022-07-29T21:46:52;487.00;2380.80
49052;DHT22;34866;48.670;18.260;2022-07-29T21:49:17;486.80;2380.80
49052;DHT22;34866;48.670;18.260;2022-07-29T21:51:43;487.20;2380.80
49052;DHT22;34866;48.670;18.260;2022-07-29T21:54:11;512.00;2380.80
49052;DHT22;34866;48.670;18.260;2022-07-29T21:56:36;487.20;2380.80
49052;DHT22;34866;48.670;18.260;2022-07-29T21:59:02;487.10;2380.80
49052;DHT22;34866;48.670;18.260;2022-07-29T22:01:28;487.30;2380.80
49052;DHT22;34866;48.670;18.260;2022-07-29T22:03:53;487.20;2380.80
49052;DHT22;34866;48.670;18.260;2022-07-29T22:06:20;486.90;2380.80
49052;DHT22;34866;48.670;18.260;2022-07-29T22:08:46;487.20;2380.80
49052;DHT22;34866;48.670;18.260;2022-07-29T22:11:12;487.20;2380.80
49052;DHT22;34866;48.670;18.260;2022-07-29T22:13:38;487.00;2380.80
49052;DHT22;34866;48.670;18.260;2022-07-29T22:16:04;487.20;2380.80
49052;DHT22;34866;48.670;18.260;2022-07-29T22:18:29;487.00;2380.80
49052;DHT22;34866;48.670;18.260;2022-07-29T22:20:55;486.80;2380.80
49052;DHT22;34866;48.670;18.260;2022-07-29T22:23:21;486.80;2380.80
49052;DHT22;34866;48.670;18.260;2022-07-29T22:25:47;486.80;2380.80
49052;DHT22;34866;48.670;18.260;2022-07-29T22:28:13;486.60;2380.80
49052;DHT22;34866;48.670;18.260;2022-07-29T22:30:40;486.70;2380.80
49052;DHT22;34866;48.670;18.260;2022-07-29T22:33:07;486.70;2380.80
49052;DHT22;34866;48.670;18.260;2022-07-29T22:35:36;486.70;2380.80
49052;DHT22;34866;48.670;18.260;2022-07-29T22:38:02;486.50;2380.80
49052;DHT22;34866;48.670;18.260;2022-07-29T22:40:27;486.50;2380.80
49052;DHT22;34866;48.670;18.260;2022-07-29T22:42:55;486.50;2380.80
49052;DHT22;34866;48.670;18.260;2022-07-29T22:45:22;486.50;2380.80
49052;DHT22;34866;48.670;18.260;2022-07-29T22:47:50;486.50;2380.80
49052;DHT22;34866;48.670;18.260;2022-07-29T22:50:16;486.50;2380.80
49052;DHT22;34866;48.670;18.260;2022-07-29T22:52:44;486.60;2380.80
49052;DHT22;34866;48.670;18.260;2022-07-29T22:55:12;486.70;2380.80
49052;DHT22;34866;48.670;18.260;2022-07-29T22:57:38;486.60;2380.80
49052;DHT22;34866;48.670;18.260;2022-07-29T23:00:05;486.50;2380.80
49052;DHT22;34866;48.670;18.260;2022-07-29T23:02:33;486.60;2380.80
49052;DHT22;34866;48.670;18.260;2022-07-29T23:05:01;486.50;2380.80
49052;DHT22;34866;48.670;18.260;2022-07-29T23:07:32;486.60;2380.80
49052;DHT22;34866;48.670;18.260;2022-07-29T23:09:58;486.50;2380.80
49052;DHT22;34866;48.670;18.260;2022-07-29T23:12:23;486.50;2380.80
49052;DHT22;34866;48.670;18.260;2022-07-29T23:14:49;486.50;2380.80
49052;DHT22;34866;48.670;18.260;2022-07-29T23:17:15;486.60;2380.80
49052;DHT22;34866;48.670;18.260;2022-07-29T23:19:41;486.50;2380.80
49052;DHT22;34866;48.670;18.260;2022-07-29T23:22:06;486.50;2380.80
49052;DHT22;34866;48.670;18.260;2022-07-29T23:24:32;486.50;2380.80
49052;DHT22;34866;48.670;18.260;2022-07-29T23:27:03;486.40;2380.80
49052;DHT22;34866;48.670;18.260;2022-07-29T23:29:29;461.70;2380.80
49052;DHT22;34866;48.670;18.260;2022-07-29T23:31:55;486.40;2380.80
49052;DHT22;34866;48.670;18.260;2022-07-29T23:34:20;486.50;2380.80
49052;DHT22;34866;48.670;18.260;2022-07-29T23:36:46;486.40;2380.80
49052;DHT22;34866;48.670;18.260;2022-07-29T23:39:12;486.60;2380.80
49052;DHT22;34866;48.670;18.260;2022-07-29T23:41:38;486.60;2380.80
49052;DHT22;34866;48.670;18.260;2022-07-29T23:44:05;486.70;2380.80
49052;DHT22;34866;48.670;18.260;2022-07-29T23:46:34;486.80;2380.80
49052;DHT22;34866;48.670;18.260;2022-07-29T23:49:21;486.90;2380.80
49052;DHT22;34866;48.670;18.260;2022-07-29T23:52:00;486.60;2380.80
49052;DHT22;34866;48.670;18.260;2022-07-29T23:54:29;486.50;2380.80
49052;DHT22;34866;48.670;18.260;2022-07-29T23:56:58;486.50;2380.80
49052;DHT22;34866;48.670;18.260;2022-07-29T23:59:42;486.60;2380.80
